sensor_id;sensor_type;location;lat;lon;timestamp;temperature;humidity
79065;DHT22;68469;51.502;7.462;2023-06-24T00:00:28;18.30;90.80
79065;DHT22;68469;51.502;7.462;2023-06-24T00:02:57;18.20;90.40
79065;DHT22;68469;51.502;7.462;2023-06-24T00:05:27;18.20;90.50
79065;DHT22;68469;51.502;7.462;2023-06-24T00:07:52;18.20;91.20
79065;DHT22;68469;51.502;7.462;2023-06-24T00:10:22;18.20;91.60
79065;DHT22;68469;51.502;7.462;2023-06-24T00:12:47;18.10;90.70
79065;DHT22;68469;51.502;7.462;2023-06-24T00:15:13;18.10;90.40
79065;DHT22;68469;51.502;7.462;2023-06-24T00:17:39;18.10;90.60
79065;DHT22;68469;51.502;7.462;2023-06-24T00:20:06;18.10;91.00
79065;DHT22;68469;51.502;7.462;2023-06-24T00:22:39;18.10;91.10
79065;DHT22;68469;51.502;7.462;2023-06-24T00:25:09;18.00;90.60
79065;DHT22;68469;51.502;7.462;2023-06-24T00:27:35;18.00;87.60
79065;DHT22;68469;51.502;7.462;2023-06-24T00:30:00;18.00;88.80
79065;DHT22;68469;51.502;7.462;2023-06-24T00:32:26;18.00;88.50
79065;DHT22;68469;51.502;7.462;2023-06-24T00:34:51;18.00;89.50
79065;DHT22;68469;51.502;7.462;2023-06-24T00:37:17;18.00;87.90
79065;DHT22;68469;51.502;7.462;2023-06-24T00:39:43;17.90;87.70
79065;DHT22;68469;51.502;7.462;2023-06-24T00:42:11;17.90;89.70
79065;DHT22;68469;51.502;7.462;2023-06-24T00:44:37;17.80;88.60
79065;DHT22;68469;51.502;7.462;2023-06-24T00:47:05;17.90;88.20
79065;DHT22;68469;51.502;7.462;2023-06-24T00:49:30;17.80;90.10
79065;DHT22;68469;51.502;7.462;2023-06-24T00:51:56;17.80;90.30
79065;DHT22;68469;51.502;7.462;2023-06-24T00:54:22;17.80;90.20
79065;DHT22;68469;51.502;7.462;2023-06-24T00:56:47;17.70;90.70
79065;DHT22;68469;51.502;7.462;2023-06-24T00:59:15;17.70;90.90
79065;DHT22;68469;51.502;7.462;2023-06-24T01:01:41;17.70;90.70
79065;DHT22;68469;51.502;7.462;2023-06-24T01:04:07;17.70;90.80
79065;DHT22;68469;51.502;7.462;2023-06-24T01:06:35;17.70;91.20
79065;DHT22;68469;51.502;7.462;2023-06-24T01:09:01;17.60;90.90
79065;DHT22;68469;51.502;7.462;2023-06-24T01:11:31;17.60;90.70
79065;DHT22;68469;51.502;7.462;2023-06-24T01:13:57;17.70;91.00
79065;DHT22;68469;51.502;7.462;2023-06-24T01:16:29;17.60;90.80
79065;DHT22;68469;51.502;7.462;2023-06-24T01:19:00;17.60;90.70
79065;DHT22;68469;51.502;7.462;2023-06-24T01:22:15;17.60;91.10
79065;DHT22;68469;51.502;7.462;2023-06-24T01:28:08;17.50;89.70
79065;DHT22;68469;51.502;7.462;2023-06-24T01:31:05;17.50;90.30
79065;DHT22;68469;51.502;7.462;2023-06-24T01:34:18;17.50;89.70
79065;DHT22;68469;51.502;7.462;2023-06-24T01:39:25;17.40;90.60
79065;DHT22;68469;51.502;7.462;2023-06-24T01:42:03;17.40;91.40
79065;DHT22;68469;51.502;7.462;2023-06-24T01:44:32;17.40;91.10
79065;DHT22;68469;51.502;7.462;2023-06-24T01:47:01;17.30;91.10
79065;DHT22;68469;51.502;7.462;2023-06-24T01:49:29;17.40;91.50
79065;DHT22;68469;51.502;7.462;2023-06-24T01:51:58;17.40;91.80
79065;DHT22;68469;51.502;7.462;2023-06-24T01:54:26;17.30;91.70
79065;DHT22;68469;51.502;7.462;2023-06-24T01:56:55;17.30;91.90
79065;DHT22;68469;51.502;7.462;2023-06-24T01:59:23;17.30;91.50
79065;DHT22;68469;51.502;7.462;2023-06-24T02:01:51;17.30;91.50
79065;DHT22;68469;51.502;7.462;2023-06-24T02:04:17;17.20;91.60
79065;DHT22;68469;51.502;7.462;2023-06-24T02:06:44;17.20;91.40
79065;DHT22;68469;51.502;7.462;2023-06-24T02:09:11;17.30;91.40
79065;DHT22;68469;51.502;7.462;2023-06-24T02:11:38;17.20;90.70
79065;DHT22;68469;51.502;7.462;2023-06-24T02:14:05;17.20;90.60
79065;DHT22;68469;51.502;7.462;2023-06-24T02:16:33;17.20;91.60
79065;DHT22;68469;51.502;7.462;2023-06-24T02:19:00;17.20;91.50
79065;DHT22;68469;51.502;7.462;2023-06-24T02:21:28;17.20;91.00
79065;DHT22;68469;51.502;7.462;2023-06-24T02:23:54;17.20;91.80
79065;DHT22;68469;51.502;7.462;2023-06-24T02:26:21;17.20;91.50
79065;DHT22;68469;51.502;7.462;2023-06-24T02:28:48;17.10;91.30
79065;DHT22;68469;51.502;7.462;2023-06-24T02:31:15;17.10;91.10
79065;DHT22;68469;51.502;7.462;2023-06-24T02:33:41;17.10;91.30
79065;DHT22;68469;51.502;7.462;2023-06-24T02:36:07;17.10;91.40
79065;DHT22;68469;51.502;7.462;2023-06-24T02:38:33;17.10;91.60
79065;DHT22;68469;51.502;7.462;2023-06-24T02:40:59;17.10;91.10
79065;DHT22;68469;51.502;7.462;2023-06-24T02:43:25;17.10;90.70
79065;DHT22;68469;51.502;7.462;2023-06-24T02:45:52;17.10;90.90
79065;DHT22;68469;51.502;7.462;2023-06-24T02:48:19;17.00;91.10
79065;DHT22;68469;51.502;7.462;2023-06-24T02:50:46;17.10;91.30
79065;DHT22;68469;51.502;7.462;2023-06-24T02:53:12;17.00;91.40
79065;DHT22;68469;51.502;7.462;2023-06-24T02:55:40;17.10;90.80
79065;DHT22;68469;51.502;7.462;2023-06-24T02:58:07;17.00;91.20
79065;DHT22;68469;51.502;7.462;2023-06-24T03:00:35;17.00;91.50
79065;DHT22;68469;51.502;7.462;2023-06-24T03:03:02;17.00;91.10
79065;DHT22;68469;51.502;7.462;2023-06-24T03:05:30;17.00;91.80
79065;DHT22;68469;51.502;7.462;2023-06-24T03:07:57;17.00;91.90
79065;DHT22;68469;51.502;7.462;2023-06-24T03:10:24;17.00;90.70
79065;DHT22;68469;51.502;7.462;2023-06-24T03:12:50;17.00;90.80
79065;DHT22;68469;51.502;7.462;2023-06-24T03:15:16;17.00;90.40
79065;DHT22;68469;51.502;7.462;2023-06-24T03:17:41;17.00;90.70
79065;DHT22;68469;51.502;7.462;2023-06-24T03:20:07;17.00;90.20
79065;DHT22;68469;51.502;7.462;2023-06-24T03:22:34;17.00;90.80
79065;DHT22;68469;51.502;7.462;2023-06-24T03:24:59;17.00;90.20
79065;DHT22;68469;51.502;7.462;2023-06-24T03:27:25;17.00;90.50
79065;DHT22;68469;51.502;7.462;2023-06-24T03:29:51;17.00;90.30
79065;DHT22;68469;51.502;7.462;2023-06-24T03:32:16;16.90;90.20
79065;DHT22;68469;51.502;7.462;2023-06-24T03:34:42;16.90;90.50
79065;DHT22;68469;51.502;7.462;2023-06-24T03:37:07;16.90;90.50
79065;DHT22;68469;51.502;7.462;2023-06-24T03:39:33;16.90;90.80
79065;DHT22;68469;51.502;7.462;2023-06-24T03:41:58;17.00;91.00
79065;DHT22;68469;51.502;7.462;2023-06-24T03:44:24;16.90;90.20
79065;DHT22;68469;51.502;7.462;2023-06-24T03:46:50;16.90;90.10
79065;DHT22;68469;51.502;7.462;2023-06-24T03:49:15;16.90;90.40
79065;DHT22;68469;51.502;7.462;2023-06-24T03:51:42;17.00;90.70
79065;DHT22;68469;51.502;7.462;2023-06-24T03:54:07;17.00;90.60
79065;DHT22;68469;51.502;7.462;2023-06-24T03:56:33;17.00;90.80
79065;DHT22;68469;51.502;7.462;2023-06-24T03:58:59;17.00;90.30
79065;DHT22;68469;51.502;7.462;2023-06-24T04:01:24;17.00;89.90
79065;DHT22;68469;51.502;7.462;2023-06-24T04:03:50;17.10;90.00
79065;DHT22;68469;51.502;7.462;2023-06-24T04:06:15;17.20;90.10
79065;DHT22;68469;51.502;7.462;2023-06-24T04:08:41;17.20;89.00
79065;DHT22;68469;51.502;7.462;2023-06-24T04:11:09;17.20;89.50
79065;DHT22;68469;51.502;7.462;2023-06-24T04:13:35;17.30;89.50
79065;DHT22;68469;51.502;7.462;2023-06-24T04:16:01;17.30;89.60
79065;DHT22;68469;51.502;7.462;2023-06-24T04:18:27;17.40;90.10
79065;DHT22;68469;51.502;7.462;2023-06-24T04:20:53;17.50;90.00
79065;DHT22;68469;51.502;7.462;2023-06-24T04:23:19;17.50;88.30
79065;DHT22;68469;51.502;7.462;2023-06-24T04:25:44;17.50;89.80
79065;DHT22;68469;51.502;7.462;2023-06-24T04:28:10;17.50;90.80
79065;DHT22;68469;51.502;7.462;2023-06-24T04:30:36;17.60;90.80
79065;DHT22;68469;51.502;7.462;2023-06-24T04:33:04;17.60;90.00
79065;DHT22;68469;51.502;7.462;2023-06-24T04:35:29;17.60;88.40
79065;DHT22;68469;51.502;7.462;2023-06-24T04:37:56;17.60;90.50
79065;DHT22;68469;51.502;7.462;2023-06-24T04:40:21;17.60;89.20
79065;DHT22;68469;51.502;7.462;2023-06-24T04:42:47;17.60;87.50
79065;DHT22;68469;51.502;7.462;2023-06-24T04:45:13;17.70;86.40
79065;DHT22;68469;51.502;7.462;2023-06-24T04:47:38;17.80;86.00
79065;DHT22;68469;51.502;7.462;2023-06-24T04:50:04;17.80;86.60
79065;DHT22;68469;51.502;7.462;2023-06-24T04:52:30;17.90;86.60
79065;DHT22;68469;51.502;7.462;2023-06-24T04:54:56;18.00;89.00
79065;DHT22;68469;51.502;7.462;2023-06-24T04:57:28;18.00;88.80
79065;DHT22;68469;51.502;7.462;2023-06-24T04:59:54;18.10;85.40
79065;DHT22;68469;51.502;7.462;2023-06-24T05:02:19;18.30;84.30
79065;DHT22;68469;51.502;7.462;2023-06-24T05:04:45;18.40;83.80
79065;DHT22;68469;51.502;7.462;2023-06-24T05:07:10;18.50;84.60
79065;DHT22;68469;51.502;7.462;2023-06-24T05:09:37;18.50;81.80
79065;DHT22;68469;51.502;7.462;2023-06-24T05:12:06;18.60;80.80
79065;DHT22;68469;51.502;7.462;2023-06-24T05:14:34;18.60;82.00
79065;DHT22;68469;51.502;7.462;2023-06-24T05:17:00;18.70;82.80
79065;DHT22;68469;51.502;7.462;2023-06-24T05:19:26;18.80;81.50
79065;DHT22;68469;51.502;7.462;2023-06-24T05:21:51;18.90;79.50
79065;DHT22;68469;51.502;7.462;2023-06-24T05:24:17;19.00;80.10
79065;DHT22;68469;51.502;7.462;2023-06-24T05:26:44;19.00;79.10
79065;DHT22;68469;51.502;7.462;2023-06-24T05:29:10;19.00;80.70
79065;DHT22;68469;51.502;7.462;2023-06-24T05:31:37;19.10;80.20
79065;DHT22;68469;51.502;7.462;2023-06-24T05:34:02;19.10;79.20
79065;DHT22;68469;51.502;7.462;2023-06-24T05:36:28;19.10;81.00
79065;DHT22;68469;51.502;7.462;2023-06-24T05:38:54;19.20;81.10
79065;DHT22;68469;51.502;7.462;2023-06-24T05:41:19;19.20;80.40
79065;DHT22;68469;51.502;7.462;2023-06-24T05:43:45;19.40;80.50
79065;DHT22;68469;51.502;7.462;2023-06-24T05:46:10;19.60;79.80
79065;DHT22;68469;51.502;7.462;2023-06-24T05:48:37;19.80;77.50
79065;DHT22;68469;51.502;7.462;2023-06-24T05:51:02;19.90;77.70
79065;DHT22;68469;51.502;7.462;2023-06-24T05:53:28;20.20;77.00
79065;DHT22;68469;51.502;7.462;2023-06-24T05:55:54;20.30;78.20
79065;DHT22;68469;51.502;7.462;2023-06-24T05:58:19;20.60;75.90
79065;DHT22;68469;51.502;7.462;2023-06-24T06:00:45;20.70;78.10
79065;DHT22;68469;51.502;7.462;2023-06-24T06:03:11;20.80;78.20
79065;DHT22;68469;51.502;7.462;2023-06-24T06:05:36;20.90;78.70
79065;DHT22;68469;51.502;7.462;2023-06-24T06:08:02;21.00;79.90
79065;DHT22;68469;51.502;7.462;2023-06-24T06:10:28;21.00;77.00
79065;DHT22;68469;51.502;7.462;2023-06-24T06:12:53;21.10;75.40
79065;DHT22;68469;51.502;7.462;2023-06-24T06:15:19;21.10;74.80
79065;DHT22;68469;51.502;7.462;2023-06-24T06:17:46;21.20;72.80
79065;DHT22;68469;51.502;7.462;2023-06-24T06:20:11;21.20;75.10
79065;DHT22;68469;51.502;7.462;2023-06-24T06:22:37;21.30;75.40
79065;DHT22;68469;51.502;7.462;2023-06-24T06:25:06;21.30;78.20
79065;DHT22;68469;51.502;7.462;2023-06-24T06:27:32;21.40;73.40
79065;DHT22;68469;51.502;7.462;2023-06-24T06:29:58;21.40;76.20
79065;DHT22;68469;51.502;7.462;2023-06-24T06:32:24;21.40;77.30
79065;DHT22;68469;51.502;7.462;2023-06-24T06:34:49;21.40;73.90
79065;DHT22;68469;51.502;7.462;2023-06-24T06:37:15;21.40;75.50
79065;DHT22;68469;51.502;7.462;2023-06-24T06:39:40;21.40;75.20
79065;DHT22;68469;51.502;7.462;2023-06-24T06:42:06;21.50;75.50
79065;DHT22;68469;51.502;7.462;2023-06-24T06:44:32;21.50;70.60
79065;DHT22;68469;51.502;7.462;2023-06-24T06:46:57;21.50;74.40
79065;DHT22;68469;51.502;7.462;2023-06-24T06:49:23;21.60;76.50
79065;DHT22;68469;51.502;7.462;2023-06-24T06:51:49;21.80;73.40
79065;DHT22;68469;51.502;7.462;2023-06-24T06:54:14;22.00;73.50
79065;DHT22;68469;51.502;7.462;2023-06-24T06:56:40;22.20;72.80
79065;DHT22;68469;51.502;7.462;2023-06-24T06:59:06;22.30;69.00
79065;DHT22;68469;51.502;7.462;2023-06-24T07:01:31;22.50;68.50
79065;DHT22;68469;51.502;7.462;2023-06-24T07:03:57;22.50;69.30
79065;DHT22;68469;51.502;7.462;2023-06-24T07:06:22;22.70;70.10
79065;DHT22;68469;51.502;7.462;2023-06-24T07:08:48;22.80;72.30
79065;DHT22;68469;51.502;7.462;2023-06-24T07:11:13;23.00;70.80
79065;DHT22;68469;51.502;7.462;2023-06-24T07:13:39;23.20;69.10
79065;DHT22;68469;51.502;7.462;2023-06-24T07:16:05;23.30;67.10
79065;DHT22;68469;51.502;7.462;2023-06-24T07:18:30;23.50;68.00
79065;DHT22;68469;51.502;7.462;2023-06-24T07:20:56;23.60;67.20
79065;DHT22;68469;51.502;7.462;2023-06-24T07:23:22;23.60;65.80
79065;DHT22;68469;51.502;7.462;2023-06-24T07:25:48;23.50;69.80
79065;DHT22;68469;51.502;7.462;2023-06-24T07:28:13;23.60;70.10
79065;DHT22;68469;51.502;7.462;2023-06-24T07:30:40;23.80;66.80
79065;DHT22;68469;51.502;7.462;2023-06-24T07:33:07;24.00;63.80
79065;DHT22;68469;51.502;7.462;2023-06-24T07:35:33;24.20;65.90
79065;DHT22;68469;51.502;7.462;2023-06-24T07:38:00;24.40;64.60
79065;DHT22;68469;51.502;7.462;2023-06-24T07:40:25;24.60;65.40
79065;DHT22;68469;51.502;7.462;2023-06-24T07:42:51;24.70;62.00
79065;DHT22;68469;51.502;7.462;2023-06-24T07:45:17;24.90;61.80
79065;DHT22;68469;51.502;7.462;2023-06-24T07:47:42;25.10;61.70
79065;DHT22;68469;51.502;7.462;2023-06-24T07:50:08;25.30;63.90
79065;DHT22;68469;51.502;7.462;2023-06-24T07:52:36;25.30;64.70
79065;DHT22;68469;51.502;7.462;2023-06-24T07:55:02;25.30;63.70
79065;DHT22;68469;51.502;7.462;2023-06-24T07:57:29;25.20;63.20
79065;DHT22;68469;51.502;7.462;2023-06-24T07:59:54;25.20;64.00
79065;DHT22;68469;51.502;7.462;2023-06-24T08:02:20;25.20;65.70
79065;DHT22;68469;51.502;7.462;2023-06-24T08:04:46;25.30;64.40
79065;DHT22;68469;51.502;7.462;2023-06-24T08:07:12;25.40;64.90
79065;DHT22;68469;51.502;7.462;2023-06-24T08:09:37;25.50;63.80
79065;DHT22;68469;51.502;7.462;2023-06-24T08:12:03;25.70;61.40
79065;DHT22;68469;51.502;7.462;2023-06-24T08:14:29;25.80;61.00
79065;DHT22;68469;51.502;7.462;2023-06-24T08:16:54;26.00;61.40
79065;DHT22;68469;51.502;7.462;2023-06-24T08:19:20;26.20;59.60
79065;DHT22;68469;51.502;7.462;2023-06-24T08:21:46;26.40;61.40
79065;DHT22;68469;51.502;7.462;2023-06-24T08:24:11;26.60;59.80
79065;DHT22;68469;51.502;7.462;2023-06-24T08:26:37;26.80;59.60
79065;DHT22;68469;51.502;7.462;2023-06-24T08:29:03;27.00;57.40
79065;DHT22;68469;51.502;7.462;2023-06-24T08:31:28;27.20;57.30
79065;DHT22;68469;51.502;7.462;2023-06-24T08:33:54;27.30;56.70
79065;DHT22;68469;51.502;7.462;2023-06-24T08:36:22;27.30;57.30
79065;DHT22;68469;51.502;7.462;2023-06-24T08:38:49;27.30;56.80
79065;DHT22;68469;51.502;7.462;2023-06-24T08:41:15;27.30;57.60
79065;DHT22;68469;51.502;7.462;2023-06-24T08:43:40;27.40;58.40
79065;DHT22;68469;51.502;7.462;2023-06-24T08:46:07;27.40;58.10
79065;DHT22;68469;51.502;7.462;2023-06-24T08:48:33;27.40;58.20
79065;DHT22;68469;51.502;7.462;2023-06-24T08:51:07;27.40;58.30
79065;DHT22;68469;51.502;7.462;2023-06-24T08:53:34;27.40;56.00
79065;DHT22;68469;51.502;7.462;2023-06-24T08:56:01;27.50;56.80
79065;DHT22;68469;51.502;7.462;2023-06-24T08:58:27;27.60;58.10
79065;DHT22;68469;51.502;7.462;2023-06-24T09:00:53;27.70;56.90
79065;DHT22;68469;51.502;7.462;2023-06-24T09:03:19;27.80;56.50
79065;DHT22;68469;51.502;7.462;2023-06-24T09:05:44;27.80;57.10
79065;DHT22;68469;51.502;7.462;2023-06-24T09:08:10;27.90;56.60
79065;DHT22;68469;51.502;7.462;2023-06-24T09:10:37;28.00;57.00
79065;DHT22;68469;51.502;7.462;2023-06-24T09:13:06;28.10;56.00
79065;DHT22;68469;51.502;7.462;2023-06-24T09:15:32;28.20;56.70
79065;DHT22;68469;51.502;7.462;2023-06-24T09:17:58;28.30;56.10
79065;DHT22;68469;51.502;7.462;2023-06-24T09:20:26;28.30;55.20
79065;DHT22;68469;51.502;7.462;2023-06-24T09:22:52;28.40;55.60
79065;DHT22;68469;51.502;7.462;2023-06-24T09:25:22;28.40;55.60
79065;DHT22;68469;51.502;7.462;2023-06-24T09:27:48;28.60;56.10
79065;DHT22;68469;51.502;7.462;2023-06-24T09:30:23;28.60;55.60
79065;DHT22;68469;51.502;7.462;2023-06-24T09:32:50;28.70;56.10
79065;DHT22;68469;51.502;7.462;2023-06-24T09:35:23;28.70;54.00
79065;DHT22;68469;51.502;7.462;2023-06-24T09:37:53;28.70;54.00
79065;DHT22;68469;51.502;7.462;2023-06-24T09:40:19;28.80;54.40
79065;DHT22;68469;51.502;7.462;2023-06-24T09:42:52;28.60;54.50
79065;DHT22;68469;51.502;7.462;2023-06-24T09:45:30;28.60;54.70
79065;DHT22;68469;51.502;7.462;2023-06-24T09:47:57;28.40;54.70
79065;DHT22;68469;51.502;7.462;2023-06-24T09:50:25;28.40;54.80
79065;DHT22;68469;51.502;7.462;2023-06-24T09:52:52;28.40;53.80
79065;DHT22;68469;51.502;7.462;2023-06-24T09:55:18;28.40;55.20
79065;DHT22;68469;51.502;7.462;2023-06-24T09:57:50;28.60;54.30
79065;DHT22;68469;51.502;7.462;2023-06-24T10:00:18;28.80;54.10
79065;DHT22;68469;51.502;7.462;2023-06-24T10:02:45;29.00;54.80
79065;DHT22;68469;51.502;7.462;2023-06-24T10:05:12;29.10;52.90
79065;DHT22;68469;51.502;7.462;2023-06-24T10:07:39;29.20;52.20
79065;DHT22;68469;51.502;7.462;2023-06-24T10:10:06;29.40;52.10
79065;DHT22;68469;51.502;7.462;2023-06-24T10:12:33;29.50;52.20
79065;DHT22;68469;51.502;7.462;2023-06-24T10:14:59;29.60;51.60
79065;DHT22;68469;51.502;7.462;2023-06-24T10:17:25;29.80;50.80
79065;DHT22;68469;51.502;7.462;2023-06-24T10:19:52;29.80;49.00
79065;DHT22;68469;51.502;7.462;2023-06-24T10:22:24;29.70;49.50
79065;DHT22;68469;51.502;7.462;2023-06-24T10:24:52;29.50;51.10
79065;DHT22;68469;51.502;7.462;2023-06-24T10:27:20;29.60;55.90
79065;DHT22;68469;51.502;7.462;2023-06-24T10:29:50;29.80;51.70
79065;DHT22;68469;51.502;7.462;2023-06-24T10:32:18;30.10;50.90
79065;DHT22;68469;51.502;7.462;2023-06-24T10:34:45;30.40;49.50
79065;DHT22;68469;51.502;7.462;2023-06-24T10:37:31;30.40;50.10
79065;DHT22;68469;51.502;7.462;2023-06-24T10:40:01;31.10;50.30
79065;DHT22;68469;51.502;7.462;2023-06-24T10:42:39;31.90;47.80
79065;DHT22;68469;51.502;7.462;2023-06-24T10:47:43;33.90;47.70
79065;DHT22;68469;51.502;7.462;2023-06-24T10:50:11;34.90;43.20
79065;DHT22;68469;51.502;7.462;2023-06-24T10:52:45;35.90;40.00
79065;DHT22;68469;51.502;7.462;2023-06-24T10:55:18;36.70;39.30
79065;DHT22;68469;51.502;7.462;2023-06-24T10:57:44;36.30;38.50
79065;DHT22;68469;51.502;7.462;2023-06-24T11:00:12;36.60;38.70
79065;DHT22;68469;51.502;7.462;2023-06-24T11:02:37;37.20;39.30
79065;DHT22;68469;51.502;7.462;2023-06-24T11:05:04;37.80;37.80
79065;DHT22;68469;51.502;7.462;2023-06-24T11:07:35;38.50;37.60
79065;DHT22;68469;51.502;7.462;2023-06-24T11:10:05;38.90;35.80
79065;DHT22;68469;51.502;7.462;2023-06-24T11:12:35;39.30;36.40
79065;DHT22;68469;51.502;7.462;2023-06-24T11:15:06;39.90;34.40
79065;DHT22;68469;51.502;7.462;2023-06-24T11:17:35;40.30;37.00
79065;DHT22;68469;51.502;7.462;2023-06-24T11:20:01;40.50;35.80
79065;DHT22;68469;51.502;7.462;2023-06-24T11:22:28;40.60;34.00
79065;DHT22;68469;51.502;7.462;2023-06-24T11:24:54;40.90;34.10
79065;DHT22;68469;51.502;7.462;2023-06-24T11:27:28;40.70;32.30
79065;DHT22;68469;51.502;7.462;2023-06-24T11:29:55;40.50;35.90
79065;DHT22;68469;51.502;7.462;2023-06-24T11:32:21;40.50;37.70
79065;DHT22;68469;51.502;7.462;2023-06-24T11:34:47;40.70;37.50
79065;DHT22;68469;51.502;7.462;2023-06-24T11:37:15;41.10;36.30
79065;DHT22;68469;51.502;7.462;2023-06-24T11:39:42;41.40;35.40
79065;DHT22;68469;51.502;7.462;2023-06-24T11:42:08;41.70;34.90
79065;DHT22;68469;51.502;7.462;2023-06-24T11:44:35;42.00;34.70
79065;DHT22;68469;51.502;7.462;2023-06-24T11:47:08;42.10;34.00
79065;DHT22;68469;51.502;7.462;2023-06-24T11:49:55;42.20;31.70
79065;DHT22;68469;51.502;7.462;2023-06-24T11:52:41;42.70;35.90
79065;DHT22;68469;51.502;7.462;2023-06-24T11:55:20;42.80;33.10
79065;DHT22;68469;51.502;7.462;2023-06-24T11:58:02;43.00;28.90
79065;DHT22;68469;51.502;7.462;2023-06-24T12:00:36;43.20;32.40
79065;DHT22;68469;51.502;7.462;2023-06-24T12:03:05;43.20;31.10
79065;DHT22;68469;51.502;7.462;2023-06-24T12:05:34;43.20;31.80
79065;DHT22;68469;51.502;7.462;2023-06-24T12:08:02;43.30;30.60
79065;DHT22;68469;51.502;7.462;2023-06-24T12:10:29;43.60;31.60
79065;DHT22;68469;51.502;7.462;2023-06-24T12:12:56;43.70;31.60
79065;DHT22;68469;51.502;7.462;2023-06-24T12:15:22;43.90;30.30
79065;DHT22;68469;51.502;7.462;2023-06-24T12:17:48;43.90;29.90
79065;DHT22;68469;51.502;7.462;2023-06-24T12:20:14;43.30;30.50
79065;DHT22;68469;51.502;7.462;2023-06-24T12:22:40;43.40;29.60
79065;DHT22;68469;51.502;7.462;2023-06-24T12:25:07;43.70;30.00
79065;DHT22;68469;51.502;7.462;2023-06-24T12:27:32;43.80;29.50
79065;DHT22;68469;51.502;7.462;2023-06-24T12:29:59;43.60;28.50
79065;DHT22;68469;51.502;7.462;2023-06-24T12:32:26;43.70;29.50
79065;DHT22;68469;51.502;7.462;2023-06-24T12:34:51;43.90;27.70
79065;DHT22;68469;51.502;7.462;2023-06-24T12:37:17;44.10;26.00
79065;DHT22;68469;51.502;7.462;2023-06-24T12:39:43;44.10;28.90
79065;DHT22;68469;51.502;7.462;2023-06-24T12:42:08;44.30;29.10
79065;DHT22;68469;51.502;7.462;2023-06-24T12:44:34;43.60;28.20
79065;DHT22;68469;51.502;7.462;2023-06-24T12:46:59;42.70;28.10
79065;DHT22;68469;51.502;7.462;2023-06-24T12:49:25;41.00;26.70
79065;DHT22;68469;51.502;7.462;2023-06-24T12:51:51;39.60;27.40
79065;DHT22;68469;51.502;7.462;2023-06-24T12:54:17;38.30;29.90
79065;DHT22;68469;51.502;7.462;2023-06-24T12:56:43;37.10;32.50
79065;DHT22;68469;51.502;7.462;2023-06-24T12:59:09;36.10;32.70
79065;DHT22;68469;51.502;7.462;2023-06-24T13:01:34;35.00;36.80
79065;DHT22;68469;51.502;7.462;2023-06-24T13:04:00;33.90;36.40
79065;DHT22;68469;51.502;7.462;2023-06-24T13:06:25;33.10;36.30
79065;DHT22;68469;51.502;7.462;2023-06-24T13:08:51;32.30;34.50
79065;DHT22;68469;51.502;7.462;2023-06-24T13:11:17;31.70;39.00
79065;DHT22;68469;51.502;7.462;2023-06-24T13:13:42;31.20;43.20
79065;DHT22;68469;51.502;7.462;2023-06-24T13:16:08;30.70;39.10
79065;DHT22;68469;51.502;7.462;2023-06-24T13:18:34;30.40;39.90
79065;DHT22;68469;51.502;7.462;2023-06-24T13:20:59;30.10;39.70
79065;DHT22;68469;51.502;7.462;2023-06-24T13:23:25;29.80;45.20
79065;DHT22;68469;51.502;7.462;2023-06-24T13:25:50;29.50;44.80
79065;DHT22;68469;51.502;7.462;2023-06-24T13:28:16;29.20;38.30
79065;DHT22;68469;51.502;7.462;2023-06-24T13:30:41;29.00;40.50
79065;DHT22;68469;51.502;7.462;2023-06-24T13:33:08;28.80;43.30
79065;DHT22;68469;51.502;7.462;2023-06-24T13:35:33;28.60;43.20
79065;DHT22;68469;51.502;7.462;2023-06-24T13:37:59;28.40;46.70
79065;DHT22;68469;51.502;7.462;2023-06-24T13:40:25;28.20;47.50
79065;DHT22;68469;51.502;7.462;2023-06-24T13:42:50;28.00;43.50
79065;DHT22;68469;51.502;7.462;2023-06-24T13:45:16;27.90;47.40
79065;DHT22;68469;51.502;7.462;2023-06-24T13:47:42;27.80;49.60
79065;DHT22;68469;51.502;7.462;2023-06-24T13:50:08;27.70;50.00
79065;DHT22;68469;51.502;7.462;2023-06-24T13:52:34;27.60;45.30
79065;DHT22;68469;51.502;7.462;2023-06-24T13:54:59;27.60;49.40
79065;DHT22;68469;51.502;7.462;2023-06-24T13:57:25;27.60;45.20
79065;DHT22;68469;51.502;7.462;2023-06-24T13:59:51;27.50;50.50
79065;DHT22;68469;51.502;7.462;2023-06-24T14:02:16;27.40;45.40
79065;DHT22;68469;51.502;7.462;2023-06-24T14:04:42;27.40;45.10
79065;DHT22;68469;51.502;7.462;2023-06-24T14:07:08;27.30;48.10
79065;DHT22;68469;51.502;7.462;2023-06-24T14:09:34;27.30;47.90
79065;DHT22;68469;51.502;7.462;2023-06-24T14:12:00;27.20;48.80
79065;DHT22;68469;51.502;7.462;2023-06-24T14:14:26;27.20;49.00
79065;DHT22;68469;51.502;7.462;2023-06-24T14:16:52;27.20;45.50
79065;DHT22;68469;51.502;7.462;2023-06-24T14:19:17;27.10;43.80
79065;DHT22;68469;51.502;7.462;2023-06-24T14:21:43;27.10;42.20
79065;DHT22;68469;51.502;7.462;2023-06-24T14:24:09;27.00;41.70
79065;DHT22;68469;51.502;7.462;2023-06-24T14:26:36;27.00;42.90
79065;DHT22;68469;51.502;7.462;2023-06-24T14:29:02;27.00;43.50
79065;DHT22;68469;51.502;7.462;2023-06-24T14:31:28;26.90;44.90
79065;DHT22;68469;51.502;7.462;2023-06-24T14:33:54;26.90;46.30
79065;DHT22;68469;51.502;7.462;2023-06-24T14:36:20;26.80;50.60
79065;DHT22;68469;51.502;7.462;2023-06-24T14:38:45;26.80;42.90
79065;DHT22;68469;51.502;7.462;2023-06-24T14:41:11;26.70;46.70
79065;DHT22;68469;51.502;7.462;2023-06-24T14:43:36;26.70;44.90
79065;DHT22;68469;51.502;7.462;2023-06-24T14:46:02;26.60;45.00
79065;DHT22;68469;51.502;7.462;2023-06-24T14:48:28;26.70;45.40
79065;DHT22;68469;51.502;7.462;2023-06-24T14:50:54;26.60;45.20
79065;DHT22;68469;51.502;7.462;2023-06-24T14:53:19;26.50;43.90
79065;DHT22;68469;51.502;7.462;2023-06-24T14:55:45;26.50;43.80
79065;DHT22;68469;51.502;7.462;2023-06-24T14:58:11;26.50;44.30
79065;DHT22;68469;51.502;7.462;2023-06-24T15:00:36;26.40;45.20
79065;DHT22;68469;51.502;7.462;2023-06-24T15:03:02;26.40;43.60
79065;DHT22;68469;51.502;7.462;2023-06-24T15:05:28;26.40;42.20
79065;DHT22;68469;51.502;7.462;2023-06-24T15:07:53;26.30;43.80
79065;DHT22;68469;51.502;7.462;2023-06-24T15:10:19;26.30;43.20
79065;DHT22;68469;51.502;7.462;2023-06-24T15:12:44;26.30;44.70
79065;DHT22;68469;51.502;7.462;2023-06-24T15:15:10;26.30;43.80
79065;DHT22;68469;51.502;7.462;2023-06-24T15:17:36;26.20;42.00
79065;DHT22;68469;51.502;7.462;2023-06-24T15:20:07;26.10;40.50
79065;DHT22;68469;51.502;7.462;2023-06-24T15:22:33;26.10;40.30
79065;DHT22;68469;51.502;7.462;2023-06-24T15:24:59;26.10;41.80
79065;DHT22;68469;51.502;7.462;2023-06-24T15:27:24;26.00;42.90
79065;DHT22;68469;51.502;7.462;2023-06-24T15:29:50;26.00;43.10
79065;DHT22;68469;51.502;7.462;2023-06-24T15:32:15;26.00;42.80
79065;DHT22;68469;51.502;7.462;2023-06-24T15:34:41;26.00;42.60
79065;DHT22;68469;51.502;7.462;2023-06-24T15:37:07;26.00;42.10